createdAt,value
2024-02-16T00:10:15.764Z,1.98
2024-02-16T00:15:48.186Z,1.73
2024-02-16T00:21:06.722Z,0.77
2024-02-16T00:26:17.599Z,1.10
2024-02-16T00:31:29.625Z,1.23
2024-02-16T00:36:35.663Z,0.95
2024-02-16T00:41:41.260Z,1.63
2024-02-16T00:46:58.885Z,1.15
2024-02-16T00:52:23.440Z,1.17
2024-02-16T00:57:43.199Z,2.00
2024-02-16T01:02:53.434Z,3.33
2024-02-16T01:23:54.791Z,2.67
2024-02-16T01:29:00.403Z,1.63
2024-02-16T01:34:15.455Z,1.60
2024-02-16T01:39:24.831Z,1.42
2024-02-16T01:44:34.776Z,1.35
2024-02-16T01:49:43.190Z,2.88
2024-02-16T01:55:05.569Z,2.70
2024-02-16T02:00:20.314Z,1.52
2024-02-16T02:05:28.775Z,2.30
2024-02-16T02:10:38.510Z,2.38
2024-02-16T02:15:44.989Z,1.35
2024-02-16T02:20:56.594Z,2.60
2024-02-16T02:26:09.950Z,1.10
2024-02-16T02:31:17.575Z,2.45
2024-02-16T02:36:32.409Z,1.20
2024-02-16T02:41:42.889Z,1.42
2024-02-16T02:46:51.293Z,1.15
2024-02-16T02:51:57.803Z,1.85
2024-02-16T02:57:11.269Z,0.60
2024-02-16T03:02:27.515Z,1.08
2024-02-16T03:07:35.212Z,2.47
2024-02-16T03:12:48.541Z,1.55
2024-02-16T03:18:20.410Z,1.80
2024-02-16T03:23:25.068Z,1.55
2024-02-16T03:28:33.279Z,3.28
2024-02-16T03:38:55.417Z,2.70
2024-02-16T03:44:08.794Z,1.50
2024-02-16T03:54:32.003Z,0.85
2024-02-16T03:59:46.638Z,3.33
2024-02-16T04:04:55.311Z,3.70
2024-02-16T04:10:02.768Z,0.82
2024-02-16T04:15:13.677Z,1.38
2024-02-16T04:25:44.850Z,1.58
2024-02-16T04:30:52.750Z,2.97
2024-02-16T04:35:59.958Z,3.00
2024-02-16T04:41:18.742Z,2.30
2024-02-16T04:46:26.235Z,2.42
2024-02-16T04:51:41.485Z,2.65
2024-02-16T04:56:50.280Z,1.40
2024-02-16T05:02:08.178Z,2.28
2024-02-16T05:07:16.530Z,1.52
2024-02-16T05:12:24.230Z,1.30
2024-02-16T05:17:32.710Z,1.23
2024-02-16T05:22:37.549Z,2.13
2024-02-16T05:27:48.523Z,2.65
2024-02-16T05:33:05.818Z,3.38
2024-02-16T05:49:05.923Z,2.00
2024-02-16T05:59:37.129Z,6.60
2024-02-16T06:04:50.123Z,3.03
2024-02-16T06:09:59.984Z,2.27
2024-02-16T06:15:10.300Z,1.55
2024-02-16T06:20:21.556Z,2.72
2024-02-16T06:25:33.870Z,1.40
2024-02-16T06:30:44.460Z,2.25
2024-02-16T06:35:53.434Z,2.33
2024-02-16T06:41:05.248Z,2.05
2024-02-16T06:46:13.242Z,2.95
2024-02-16T06:51:20.950Z,4.53
2024-02-16T07:01:44.668Z,3.20
2024-02-16T07:06:57.729Z,2.17
2024-02-16T07:12:08.165Z,3.13
2024-02-16T07:17:16.432Z,3.95
2024-02-16T07:33:14.558Z,3.15
2024-02-16T07:38:29.506Z,2.72
2024-02-16T07:43:41.149Z,2.40
2024-02-16T07:48:53.734Z,3.50
2024-02-16T07:59:16.570Z,4.45
2024-02-16T08:04:40.066Z,3.35
2024-02-16T08:09:55.203Z,4.45
2024-02-16T08:15:11.741Z,6.50
2024-02-16T08:25:39.236Z,5.90
2024-02-16T08:30:47.234Z,4.75
2024-02-16T08:35:57.369Z,6.43
2024-02-16T08:41:06.380Z,4.40
2024-02-16T08:51:25.957Z,3.33
2024-02-16T08:56:32.610Z,4.50
2024-02-16T09:01:41.336Z,5.07
2024-02-16T09:06:50.587Z,4.55
2024-02-16T09:12:04.736Z,5.43
2024-02-16T09:17:12.226Z,6.15
2024-02-16T09:22:37.024Z,6.13
2024-02-16T09:27:54.019Z,8.98
2024-02-16T09:33:04.100Z,4.82
2024-02-16T09:43:39.543Z,6.18
2024-02-16T09:49:09.589Z,4.50
2024-02-16T09:54:18.072Z,4.88
2024-02-16T09:59:28.131Z,4.70
2024-02-16T10:09:49.847Z,7.05
2024-02-16T10:15:07.924Z,7.72
2024-02-16T10:25:45.575Z,8.77
2024-02-16T10:30:56.501Z,5.28
2024-02-16T10:36:09.442Z,6.53
2024-02-16T10:41:16.792Z,6.40
2024-02-16T10:46:30.543Z,7.72
2024-02-16T10:56:46.790Z,5.88
2024-02-16T11:07:24.939Z,7.18
2024-02-16T11:12:43.696Z,10.07
2024-02-16T11:17:54.573Z,9.60
2024-02-16T11:23:09.720Z,8.25
2024-02-16T11:28:16.574Z,6.85
2024-02-16T11:33:23.296Z,6.68
2024-02-16T11:38:43.284Z,6.47
2024-02-16T11:44:03.548Z,7.85
2024-02-16T11:49:14.726Z,9.80
2024-02-16T11:59:38.264Z,8.10
2024-02-16T12:04:55.541Z,6.93
2024-02-16T12:10:20.021Z,6.40
2024-02-16T12:15:26.151Z,8.15
2024-02-16T12:26:10.476Z,5.30
2024-02-16T12:31:23.750Z,7.30
2024-02-16T12:36:37.240Z,6.93
2024-02-16T12:48:39.005Z,5.50
2024-02-16T12:53:48.985Z,5.20
2024-02-16T12:59:01.121Z,4.43
2024-02-16T13:04:11.524Z,5.60
2024-02-16T13:09:20.754Z,8.07
2024-02-16T13:14:33.168Z,7.13
2024-02-16T13:19:39.878Z,6.93
2024-02-16T13:29:57.024Z,5.82
2024-02-16T13:35:05.562Z,4.63
2024-02-16T13:40:15.602Z,5.78
2024-02-16T13:45:27.398Z,6.28
2024-02-16T13:50:36.047Z,8.80
2024-02-16T13:55:42.164Z,7.78
2024-02-16T14:00:47.448Z,3.92
2024-02-16T14:06:05.931Z,5.68
2024-02-16T14:11:18.229Z,5.15
2024-02-16T14:16:27.803Z,6.38
2024-02-16T14:21:40.052Z,6.97
2024-02-16T14:26:47.041Z,6.65
2024-02-16T14:31:54.690Z,7.93
2024-02-16T14:37:10.442Z,5.63
2024-02-16T14:42:15.398Z,4.88
2024-02-16T14:52:51.759Z,7.47
2024-02-16T15:03:01.433Z,6.50
2024-02-16T15:13:43.594Z,6.25
2024-02-16T15:19:04.415Z,3.45
2024-02-16T15:24:18.289Z,7.18
2024-02-16T15:34:45.000Z,4.60
2024-02-16T15:39:57.757Z,4.22
2024-02-16T15:45:05.962Z,5.45
2024-02-16T15:50:19.409Z,3.67
2024-02-16T15:55:29.878Z,4.30
2024-02-16T16:00:37.858Z,5.35
2024-02-16T16:11:07.438Z,6.28
2024-02-16T16:16:19.204Z,6.72
2024-02-16T16:21:25.180Z,3.88
2024-02-16T16:26:41.719Z,6.35
2024-02-16T16:31:56.431Z,4.43
2024-02-16T16:37:03.319Z,5.75
2024-02-16T16:42:13.438Z,3.17
2024-02-16T16:47:26.178Z,4.15
2024-02-16T16:52:31.825Z,3.38
2024-02-16T16:57:39.713Z,4.10
2024-02-16T17:02:47.124Z,7.60
2024-02-16T17:07:53.397Z,4.88
2024-02-16T17:13:03.766Z,6.40
2024-02-16T17:18:15.548Z,11.20
2024-02-16T17:23:26.498Z,3.42
2024-02-16T17:28:38.149Z,4.15
2024-02-16T17:44:24.852Z,4.32
2024-02-16T17:49:31.673Z,5.32
2024-02-16T17:54:41.947Z,3.40
2024-02-16T17:59:57.645Z,4.50
2024-02-16T18:05:14.412Z,4.47
2024-02-16T18:10:22.616Z,6.43
2024-02-16T18:15:33.345Z,4.45
2024-02-16T18:20:39.100Z,3.97
2024-02-16T18:25:50.193Z,4.30
2024-02-16T18:31:08.701Z,4.28
2024-02-16T18:36:31.976Z,3.40
2024-02-16T18:41:40.938Z,6.05
2024-02-16T18:46:59.954Z,4.75
2024-02-16T18:57:26.967Z,2.45
2024-02-16T19:02:35.155Z,4.07
2024-02-16T19:07:41.001Z,3.60
2024-02-16T19:12:48.663Z,5.05
2024-02-16T19:23:13.456Z,2.95
2024-02-16T19:28:22.188Z,3.47
2024-02-16T19:39:03.119Z,4.40
2024-02-16T19:49:24.349Z,2.67
2024-02-16T19:54:30.668Z,1.23
2024-02-16T19:59:35.703Z,2.35
2024-02-16T20:04:44.159Z,3.15
2024-02-16T20:15:06.125Z,6.53
2024-02-16T20:25:26.562Z,3.75
2024-02-16T20:35:56.592Z,3.97
2024-02-16T20:41:10.276Z,4.20
2024-02-16T20:46:24.809Z,2.97
2024-02-16T20:51:37.243Z,3.55
2024-02-16T20:56:49.460Z,2.92
2024-02-16T21:01:59.275Z,3.08
2024-02-16T21:07:07.963Z,3.83
2024-02-16T21:12:21.045Z,3.55
2024-02-16T21:17:27.809Z,3.65
2024-02-16T21:22:41.496Z,3.15
2024-02-16T21:27:58.456Z,1.88
2024-02-16T21:38:22.111Z,3.80
2024-02-16T21:48:54.827Z,2.65
2024-02-16T21:54:07.214Z,5.63
2024-02-16T21:59:12.683Z,5.03
2024-02-16T22:04:20.414Z,2.42
2024-02-16T22:09:27.316Z,5.97
2024-02-16T22:14:32.542Z,4.93
2024-02-16T22:19:43.173Z,3.97
2024-02-16T22:24:52.857Z,4.85
2024-02-16T22:30:03.217Z,5.10
2024-02-16T22:35:15.312Z,3.43
2024-02-16T22:40:26.238Z,4.28
2024-02-16T22:45:37.531Z,3.92
2024-02-16T22:56:00.671Z,4.13
2024-02-16T23:01:13.099Z,3.75
2024-02-16T23:06:23.174Z,4.38
2024-02-16T23:11:30.171Z,3.58
2024-02-16T23:16:35.949Z,4.10
2024-02-16T23:21:45.893Z,2.08
2024-02-16T23:26:53.404Z,3.83
2024-02-16T23:32:02.095Z,3.75
2024-02-16T23:37:11.375Z,3.65
2024-02-16T23:42:28.212Z,4.30
2024-02-16T23:47:33.812Z,3.95
2024-02-16T23:52:42.124Z,3.38
2024-02-16T23:57:51.880Z,3.50
